createdAt,value
2017-07-03T00:01:36.711Z,8.88
2017-07-03T00:04:03.001Z,7.20
2017-07-03T00:06:29.690Z,7.05
2017-07-03T00:08:55.935Z,6.82
2017-07-03T00:11:22.195Z,7.20
2017-07-03T00:13:48.499Z,6.90
2017-07-03T00:16:15.131Z,7.45
2017-07-03T00:18:41.460Z,7.35
2017-07-03T00:21:07.754Z,7.03
2017-07-03T00:23:34.032Z,8.10
2017-07-03T00:26:00.689Z,6.95
2017-07-03T00:28:27.002Z,6.90
2017-07-03T00:30:53.316Z,7.53
2017-07-03T00:33:19.608Z,7.15
2017-07-03T00:35:45.893Z,6.72
2017-07-03T00:38:12.159Z,6.50
2017-07-03T00:40:38.477Z,6.55
2017-07-03T00:43:04.752Z,6.53
2017-07-03T00:45:31.048Z,7.18
2017-07-03T00:47:57.347Z,7.40
2017-07-03T00:50:24.024Z,7.10
2017-07-03T00:52:50.277Z,7.50
2017-07-03T00:55:16.588Z,7.70
2017-07-03T00:57:42.930Z,9.88
2017-07-03T01:00:09.206Z,7.40
2017-07-03T01:02:35.495Z,7.70
2017-07-03T01:05:01.751Z,7.30
2017-07-03T01:07:28.403Z,8.00
2017-07-03T01:09:54.694Z,7.25
2017-07-03T01:12:21.259Z,7.40
2017-07-03T01:14:47.899Z,8.10
2017-07-03T01:17:14.539Z,8.05
2017-07-03T01:19:40.851Z,8.30
2017-07-03T01:22:07.122Z,7.95
2017-07-03T01:24:33.409Z,7.65
2017-07-03T01:27:00.047Z,7.90
2017-07-03T01:29:26.690Z,7.45
2017-07-03T01:31:53.363Z,7.50
2017-07-03T01:34:19.683Z,7.12
2017-07-03T01:36:46.016Z,7.90
2017-07-03T01:39:12.311Z,7.85
2017-07-03T01:41:38.619Z,7.68
2017-07-03T01:44:04.918Z,8.00
2017-07-03T01:46:31.191Z,8.00
2017-07-03T01:48:57.506Z,7.68
2017-07-03T01:51:23.825Z,7.95
2017-07-03T01:53:50.463Z,9.88
2017-07-03T01:56:16.758Z,7.70
2017-07-03T01:58:43.044Z,9.27
2017-07-03T02:01:09.695Z,8.20
2017-07-03T02:03:36.337Z,8.40
2017-07-03T02:06:02.991Z,8.13
2017-07-03T02:08:29.297Z,9.93
2017-07-03T02:10:55.587Z,8.35
2017-07-03T02:13:21.852Z,8.90
2017-07-03T02:15:48.138Z,9.38
2017-07-03T02:18:14.402Z,8.77
2017-07-03T02:20:40.672Z,9.38
2017-07-03T02:23:06.957Z,9.20
2017-07-03T02:25:33.227Z,8.95
2017-07-03T02:27:59.509Z,8.75
2017-07-03T02:30:25.767Z,9.80
2017-07-03T02:32:52.054Z,7.95
2017-07-03T02:35:18.328Z,10.02
2017-07-03T02:37:44.955Z,10.00
2017-07-03T02:40:11.259Z,9.55
2017-07-03T02:42:37.528Z,11.38
2017-07-03T02:45:03.800Z,10.73
2017-07-03T02:47:30.063Z,8.50
2017-07-03T02:49:56.606Z,9.20
2017-07-03T02:52:22.878Z,9.75
2017-07-03T02:54:49.147Z,11.15
2017-07-03T02:57:15.433Z,10.05
2017-07-03T02:59:41.741Z,8.43
2017-07-03T03:02:08.037Z,8.98
2017-07-03T03:04:34.321Z,11.10
2017-07-03T03:07:00.980Z,9.65
2017-07-03T03:09:27.244Z,10.18
2017-07-03T03:11:53.519Z,8.63
2017-07-03T03:14:19.842Z,11.05
2017-07-03T03:16:46.121Z,11.40
2017-07-03T03:19:12.394Z,8.50
2017-07-03T03:21:38.636Z,9.02
2017-07-03T03:24:04.956Z,8.90
2017-07-03T03:26:31.224Z,9.68
2017-07-03T03:28:57.782Z,9.57
2017-07-03T03:31:24.068Z,9.70
2017-07-03T03:33:50.362Z,11.02
2017-07-03T03:36:16.677Z,12.25
2017-07-03T03:38:42.947Z,9.35
2017-07-03T03:41:09.245Z,11.00
2017-07-03T03:43:35.502Z,10.80
2017-07-03T03:46:01.801Z,10.02
2017-07-03T03:48:28.444Z,9.93
2017-07-03T03:50:55.544Z,11.27
2017-07-03T03:53:21.850Z,10.80
2017-07-03T03:55:48.122Z,10.65
2017-07-03T03:58:14.445Z,11.45
2017-07-03T04:00:40.731Z,10.05
2017-07-03T04:03:07.004Z,10.80
2017-07-03T04:05:33.276Z,12.37
2017-07-03T04:07:59.928Z,9.63
2017-07-03T04:10:26.235Z,15.90
2017-07-03T04:12:52.789Z,10.48
2017-07-03T04:15:19.062Z,14.20
2017-07-03T04:17:45.329Z,12.73
2017-07-03T04:20:11.620Z,12.20
2017-07-03T04:22:37.917Z,10.75
2017-07-03T04:25:04.479Z,12.48
2017-07-03T04:27:30.774Z,13.00
2017-07-03T04:29:57.052Z,12.40
2017-07-03T04:32:23.323Z,12.80
2017-07-03T04:34:49.899Z,12.77
2017-07-03T04:37:16.158Z,15.82
2017-07-03T04:39:42.457Z,11.65
2017-07-03T04:42:08.766Z,11.80
2017-07-03T04:44:35.062Z,11.65
2017-07-03T04:47:01.369Z,12.07
2017-07-03T04:49:27.674Z,15.18
2017-07-03T04:51:53.985Z,13.65
2017-07-03T04:54:20.272Z,14.35
2017-07-03T04:56:46.879Z,14.77
2017-07-03T04:59:13.176Z,15.05
2017-07-03T05:01:39.466Z,14.13
2017-07-03T05:04:05.740Z,14.13
2017-07-03T05:06:32.032Z,12.90
2017-07-03T05:08:58.690Z,14.40
2017-07-03T05:11:24.955Z,16.42
2017-07-03T05:13:51.275Z,12.30
2017-07-03T05:16:17.555Z,12.18
2017-07-03T05:18:44.474Z,12.30
2017-07-03T05:21:10.763Z,10.90
2017-07-03T05:23:37.023Z,12.07
2017-07-03T05:26:03.335Z,11.02
2017-07-03T05:28:29.621Z,10.95
2017-07-03T05:30:55.928Z,11.20
2017-07-03T05:33:22.256Z,10.13
2017-07-03T05:35:48.565Z,11.40
2017-07-03T05:38:14.886Z,11.95
2017-07-03T05:40:41.160Z,9.33
2017-07-03T05:43:13.529Z,9.27
2017-07-03T05:45:39.804Z,8.60
2017-07-03T05:48:06.088Z,9.40
2017-07-03T05:50:32.643Z,10.60
2017-07-03T05:52:58.937Z,8.60
2017-07-03T05:55:25.237Z,8.45
2017-07-03T05:57:51.507Z,9.10
2017-07-03T06:00:17.850Z,8.55
2017-07-03T06:02:44.170Z,10.23
2017-07-03T06:05:10.452Z,8.50
2017-07-03T06:07:36.739Z,8.00
2017-07-03T06:10:03.028Z,9.10
2017-07-03T06:12:29.339Z,8.90
2017-07-03T06:14:55.684Z,12.20
2017-07-03T06:17:21.990Z,7.47
2017-07-03T06:19:48.255Z,9.87
2017-07-03T06:22:14.516Z,7.80
2017-07-03T06:24:40.810Z,7.83
2017-07-03T06:27:07.087Z,8.30
2017-07-03T06:29:33.680Z,7.83
2017-07-03T06:31:59.942Z,8.17
2017-07-03T06:34:26.239Z,7.70
2017-07-03T06:36:52.545Z,9.20
2017-07-03T06:39:18.850Z,7.90
2017-07-03T06:41:45.142Z,8.60
2017-07-03T06:44:11.411Z,7.77
2017-07-03T06:46:37.979Z,7.67
2017-07-03T06:49:04.251Z,8.07
2017-07-03T06:51:30.513Z,8.10
2017-07-03T06:53:56.844Z,8.33
2017-07-03T06:56:23.149Z,7.37
2017-07-03T06:58:50.255Z,8.00
2017-07-03T07:01:16.526Z,7.70
2017-07-03T07:03:42.778Z,7.30
2017-07-03T07:06:09.066Z,7.97
2017-07-03T07:08:35.348Z,8.80
2017-07-03T07:11:02.024Z,7.60
2017-07-03T07:13:28.295Z,7.13
2017-07-03T07:15:54.586Z,7.50
2017-07-03T07:18:27.803Z,7.40
2017-07-03T07:20:54.451Z,7.67
2017-07-03T07:23:21.085Z,7.57
2017-07-03T07:25:47.727Z,7.70
2017-07-03T07:28:14.247Z,7.20
2017-07-03T07:30:40.546Z,10.50
2017-07-03T07:33:06.827Z,7.93
2017-07-03T07:35:33.103Z,7.40
2017-07-03T07:37:59.398Z,7.80
2017-07-03T07:40:25.681Z,6.40
2017-07-03T07:42:51.936Z,6.90
2017-07-03T07:45:18.618Z,6.43
2017-07-03T07:47:44.974Z,6.30
2017-07-03T07:50:11.287Z,7.20
2017-07-03T07:52:37.602Z,6.37
2017-07-03T07:55:03.872Z,6.70
2017-07-03T07:57:30.215Z,7.03
2017-07-03T07:59:56.474Z,6.53
2017-07-03T08:02:23.239Z,6.37
2017-07-03T08:04:49.508Z,6.20
2017-07-03T08:07:15.788Z,6.50
2017-07-03T08:09:42.077Z,6.80
2017-07-03T08:12:08.718Z,6.07
2017-07-03T08:14:35.803Z,7.63
2017-07-03T08:17:02.051Z,7.40
2017-07-03T08:19:28.293Z,9.87
2017-07-03T08:21:54.633Z,7.13
2017-07-03T08:24:20.898Z,6.70
2017-07-03T08:26:47.185Z,7.30
2017-07-03T08:29:13.460Z,6.57
2017-07-03T08:31:40.108Z,5.50
2017-07-03T08:34:06.407Z,5.73
2017-07-03T08:36:33.045Z,6.60
2017-07-03T08:38:59.739Z,7.40
2017-07-03T08:41:26.152Z,7.40
2017-07-03T08:43:52.512Z,6.20
2017-07-03T08:46:18.773Z,7.07
2017-07-03T08:48:45.463Z,5.77
2017-07-03T08:51:11.788Z,5.67
2017-07-03T08:53:38.050Z,5.03
2017-07-03T08:56:04.348Z,6.80
2017-07-03T08:58:30.642Z,4.87
2017-07-03T09:00:56.957Z,4.47
2017-07-03T09:03:23.623Z,4.73
2017-07-03T09:05:50.168Z,6.83
2017-07-03T09:08:16.425Z,4.80
2017-07-03T09:10:42.690Z,4.70
2017-07-03T09:13:09.273Z,7.67
2017-07-03T09:15:35.551Z,6.33
2017-07-03T09:18:02.221Z,4.70
2017-07-03T09:20:28.534Z,6.50
2017-07-03T09:22:54.817Z,4.30
2017-07-03T09:25:21.075Z,4.47
2017-07-03T09:27:47.601Z,4.57
2017-07-03T09:30:13.892Z,5.37
2017-07-03T09:32:40.160Z,4.93
2017-07-03T09:35:06.813Z,5.50
2017-07-03T09:37:33.069Z,4.80
2017-07-03T09:39:59.327Z,5.60
2017-07-03T09:42:25.575Z,4.40
2017-07-03T09:44:51.864Z,4.03
2017-07-03T09:47:18.141Z,4.13
2017-07-03T09:49:44.868Z,4.60
2017-07-03T09:52:11.144Z,3.90
2017-07-03T09:54:37.396Z,4.80
2017-07-03T09:57:03.705Z,4.70
2017-07-03T09:59:29.968Z,4.20
2017-07-03T10:01:56.281Z,5.20
2017-07-03T10:04:22.549Z,4.13
2017-07-03T10:06:48.848Z,4.30
2017-07-03T10:09:15.172Z,4.70
2017-07-03T10:11:41.487Z,3.93
2017-07-03T10:14:07.731Z,5.83
2017-07-03T10:16:34.029Z,4.63
2017-07-03T10:19:00.339Z,4.67
2017-07-03T10:21:26.588Z,4.47
2017-07-03T10:23:53.296Z,5.37
2017-07-03T10:26:19.545Z,3.90
2017-07-03T10:28:45.843Z,4.20
2017-07-03T10:31:12.110Z,5.70
2017-07-03T10:33:38.751Z,3.77
2017-07-03T10:36:05.421Z,3.90
2017-07-03T10:38:31.682Z,3.50
2017-07-03T10:40:58.019Z,3.60
2017-07-03T10:43:24.298Z,4.80
2017-07-03T10:45:50.541Z,3.63
2017-07-03T10:48:16.832Z,3.50
2017-07-03T10:50:43.095Z,3.80
2017-07-03T10:53:09.414Z,3.30
2017-07-03T10:55:35.661Z,3.70
2017-07-03T10:58:02.300Z,5.50
2017-07-03T11:00:28.582Z,4.47
2017-07-03T11:02:54.941Z,4.47
2017-07-03T11:05:21.218Z,4.10
2017-07-03T11:07:47.475Z,3.63
2017-07-03T11:10:13.757Z,4.60
2017-07-03T11:12:40.032Z,4.87
2017-07-03T11:15:06.705Z,3.40
2017-07-03T11:17:32.986Z,4.10
2017-07-03T11:19:59.587Z,3.80
2017-07-03T11:22:25.864Z,3.50
2017-07-03T11:24:52.140Z,4.17
2017-07-03T11:27:18.433Z,3.80
2017-07-03T11:29:45.052Z,3.60
2017-07-03T11:32:11.336Z,3.57
2017-07-03T11:34:37.581Z,3.63
2017-07-03T11:37:03.861Z,3.33
2017-07-03T11:39:30.127Z,3.27
2017-07-03T11:41:56.865Z,3.50
2017-07-03T11:44:23.137Z,3.93
2017-07-03T11:46:49.395Z,3.47
2017-07-03T11:49:15.672Z,3.07
2017-07-03T11:51:41.951Z,4.80
2017-07-03T11:54:08.220Z,3.50
2017-07-03T11:56:34.468Z,3.97
2017-07-03T11:59:00.739Z,3.10
2017-07-03T12:01:27.080Z,3.20
2017-07-03T12:03:53.372Z,4.73
2017-07-03T12:06:19.663Z,3.90
2017-07-03T12:08:45.904Z,5.70
2017-07-03T12:11:12.186Z,3.67
2017-07-03T12:13:38.463Z,3.93
2017-07-03T12:16:04.758Z,3.70
2017-07-03T12:18:31.089Z,3.30
2017-07-03T12:20:57.342Z,3.27
2017-07-03T12:23:23.588Z,3.20
2017-07-03T12:25:50.121Z,5.87
2017-07-03T12:28:16.386Z,8.77
2017-07-03T12:30:43.021Z,7.07
2017-07-03T12:33:09.682Z,8.30
2017-07-03T12:35:35.961Z,7.70
2017-07-03T12:38:02.225Z,5.40
2017-07-03T12:40:28.488Z,5.60
2017-07-03T12:42:55.033Z,6.60
2017-07-03T12:45:21.290Z,5.37
2017-07-03T12:47:47.563Z,6.07
2017-07-03T12:50:13.850Z,5.20
2017-07-03T12:52:40.101Z,6.10
2017-07-03T12:55:06.354Z,5.30
2017-07-03T12:57:32.634Z,7.67
2017-07-03T12:59:58.901Z,5.80
2017-07-03T13:02:25.186Z,5.50
2017-07-03T13:04:51.917Z,5.10
2017-07-03T13:07:18.176Z,4.07
2017-07-03T13:09:44.443Z,4.90
2017-07-03T13:12:10.768Z,3.10
2017-07-03T13:14:37.038Z,2.40
2017-07-03T13:17:03.338Z,2.27
2017-07-03T13:19:29.608Z,2.10
2017-07-03T13:21:56.318Z,2.40
2017-07-03T13:24:22.601Z,2.07
2017-07-03T13:26:48.842Z,2.50
2017-07-03T13:29:15.122Z,2.60
2017-07-03T13:31:41.412Z,3.03
2017-07-03T13:34:07.701Z,1.97
2017-07-03T13:36:33.964Z,2.13
2017-07-03T13:39:00.251Z,1.80
2017-07-03T13:41:26.469Z,3.07
2017-07-03T13:43:52.742Z,1.80
2017-07-03T13:46:19.020Z,2.10
2017-07-03T13:48:45.336Z,3.03
2017-07-03T13:51:11.623Z,1.90
2017-07-03T13:53:37.927Z,2.57
2017-07-03T13:56:04.223Z,2.27
2017-07-03T13:58:30.486Z,2.30
2017-07-03T14:00:57.221Z,2.00
2017-07-03T14:03:23.499Z,1.83
2017-07-03T14:05:49.804Z,2.47
2017-07-03T14:08:16.119Z,1.90
2017-07-03T14:10:42.401Z,2.10
2017-07-03T14:13:08.680Z,3.03
2017-07-03T14:15:35.391Z,3.80
2017-07-03T14:18:01.694Z,1.93
2017-07-03T14:20:27.987Z,3.60
2017-07-03T14:22:54.626Z,2.23
2017-07-03T14:25:21.312Z,2.30
2017-07-03T14:27:47.587Z,4.83
2017-07-03T14:30:13.857Z,2.67
2017-07-03T14:32:40.194Z,5.03
2017-07-03T14:35:06.517Z,2.57
2017-07-03T14:37:32.809Z,2.10
2017-07-03T14:39:59.454Z,1.93
2017-07-03T14:42:25.774Z,2.93
2017-07-03T14:44:52.040Z,2.03
2017-07-03T14:47:18.358Z,1.83
2017-07-03T14:49:44.637Z,2.10
2017-07-03T14:52:10.948Z,2.63
2017-07-03T14:54:37.216Z,2.47
2017-07-03T14:57:03.871Z,2.20
2017-07-03T14:59:30.552Z,2.00
2017-07-03T15:01:56.862Z,2.00
2017-07-03T15:04:23.141Z,1.70
2017-07-03T15:06:49.405Z,2.47
2017-07-03T15:09:15.694Z,1.60
2017-07-03T15:11:41.953Z,2.03
2017-07-03T15:14:08.214Z,2.27
2017-07-03T15:16:34.507Z,2.10
2017-07-03T15:19:00.759Z,2.00
2017-07-03T15:21:27.086Z,2.00
2017-07-03T15:23:53.350Z,1.80
2017-07-03T15:26:19.639Z,2.47
2017-07-03T15:28:45.918Z,1.60
2017-07-03T15:31:12.214Z,1.90
2017-07-03T15:33:38.510Z,2.00
2017-07-03T15:36:05.395Z,2.30
2017-07-03T15:38:31.739Z,2.80
2017-07-03T15:40:58.001Z,2.30
2017-07-03T15:43:24.283Z,1.93
2017-07-03T15:45:50.707Z,2.43
2017-07-03T15:48:17.259Z,2.47
2017-07-03T15:50:43.600Z,2.10
2017-07-03T15:53:09.892Z,2.47
2017-07-03T15:55:36.172Z,1.80
2017-07-03T15:58:02.487Z,2.60
2017-07-03T16:00:28.811Z,1.60
2017-07-03T16:02:55.084Z,2.10
2017-07-03T16:05:21.724Z,2.30
2017-07-03T16:07:47.985Z,2.97
2017-07-03T16:10:14.635Z,2.00
2017-07-03T16:12:40.904Z,1.90
2017-07-03T16:15:07.155Z,1.90
2017-07-03T16:17:33.807Z,3.13
2017-07-03T16:20:00.122Z,3.00
2017-07-03T16:22:26.817Z,3.03
2017-07-03T16:24:53.082Z,2.97
2017-07-03T16:27:19.674Z,1.90
2017-07-03T16:29:45.943Z,4.83
2017-07-03T16:32:12.252Z,2.00
2017-07-03T16:34:38.528Z,1.60
2017-07-03T16:37:04.808Z,2.60
2017-07-03T16:39:31.126Z,1.67
2017-07-03T16:41:57.399Z,2.47
2017-07-03T16:44:24.056Z,2.00
2017-07-03T16:46:50.334Z,1.70
2017-07-03T16:49:16.825Z,1.80
2017-07-03T16:51:43.143Z,2.00
2017-07-03T16:54:09.406Z,2.13
2017-07-03T16:56:35.740Z,2.20
2017-07-03T16:59:02.124Z,1.80
2017-07-03T17:01:28.394Z,1.70
2017-07-03T17:03:54.655Z,3.67
2017-07-03T17:06:21.200Z,1.80
2017-07-03T17:08:47.426Z,1.90
2017-07-03T17:11:13.702Z,2.27
2017-07-03T17:13:39.992Z,1.80
2017-07-03T17:16:06.264Z,2.47
2017-07-03T17:18:32.540Z,3.03
2017-07-03T17:20:58.816Z,2.30
2017-07-03T17:23:25.133Z,2.20
2017-07-03T17:25:51.439Z,2.43
2017-07-03T17:28:18.477Z,2.27
2017-07-03T17:30:45.094Z,1.93
2017-07-03T17:33:11.373Z,1.90
2017-07-03T17:35:37.647Z,2.60
2017-07-03T17:38:03.965Z,2.53
2017-07-03T17:40:30.217Z,2.17
2017-07-03T17:42:56.520Z,1.80
2017-07-03T17:45:22.778Z,6.87
2017-07-03T17:47:49.082Z,12.13
2017-07-03T17:50:15.383Z,5.13
2017-07-03T17:52:42.849Z,3.20
2017-07-03T17:55:09.081Z,2.20
2017-07-03T17:57:35.355Z,2.10
2017-07-03T18:00:01.649Z,2.40
2017-07-03T18:02:27.928Z,2.90
2017-07-03T18:04:54.233Z,2.60
2017-07-03T18:07:20.539Z,3.47
2017-07-03T18:09:47.189Z,2.70
2017-07-03T18:12:13.487Z,2.37
2017-07-03T18:14:39.770Z,2.90
2017-07-03T18:17:07.227Z,3.27
2017-07-03T18:19:33.578Z,3.10
2017-07-03T18:21:59.891Z,5.23
2017-07-03T18:24:26.172Z,3.00
2017-07-03T18:26:52.762Z,4.77
2017-07-03T18:29:19.072Z,4.13
2017-07-03T18:31:45.395Z,2.60
2017-07-03T18:34:12.666Z,2.80
2017-07-03T18:36:39.019Z,2.53
2017-07-03T18:39:05.303Z,3.43
2017-07-03T18:41:31.618Z,2.70
2017-07-03T18:43:57.929Z,2.97
2017-07-03T18:46:24.218Z,2.60
2017-07-03T18:48:50.949Z,3.10
2017-07-03T18:51:17.278Z,3.40
2017-07-03T18:53:43.546Z,3.50
2017-07-03T18:56:10.233Z,3.50
2017-07-03T18:58:36.711Z,2.80
2017-07-03T19:01:03.009Z,2.60
2017-07-03T19:03:29.443Z,4.13
2017-07-03T19:05:56.092Z,2.70
2017-07-03T19:08:23.021Z,3.07
2017-07-03T19:10:49.286Z,2.60
2017-07-03T19:13:15.565Z,2.60
2017-07-03T19:15:41.889Z,3.27
2017-07-03T19:18:08.527Z,3.40
2017-07-03T19:20:34.823Z,3.00
2017-07-03T19:23:01.136Z,2.63
2017-07-03T19:25:27.852Z,3.67
2017-07-03T19:27:54.464Z,2.20
2017-07-03T19:30:20.759Z,2.50
2017-07-03T19:32:47.058Z,3.43
2017-07-03T19:35:13.332Z,2.60
2017-07-03T19:37:39.642Z,3.77
2017-07-03T19:40:05.955Z,2.50
2017-07-03T19:42:32.657Z,3.90
2017-07-03T19:44:59.311Z,3.40
2017-07-03T19:47:25.651Z,2.50
2017-07-03T19:49:52.014Z,2.90
2017-07-03T19:52:18.968Z,3.10
2017-07-03T19:54:45.330Z,3.13
2017-07-03T19:57:11.676Z,2.30
2017-07-03T19:59:37.998Z,2.10
2017-07-03T20:02:05.954Z,3.50
2017-07-03T20:04:32.297Z,2.60
2017-07-03T20:07:00.388Z,5.03
2017-07-03T20:09:27.727Z,2.83
2017-07-03T20:11:54.043Z,2.43
2017-07-03T20:14:21.230Z,2.70
2017-07-03T20:16:47.508Z,4.33
2017-07-03T20:19:13.805Z,2.40
2017-07-03T20:21:40.460Z,3.47
2017-07-03T20:24:08.078Z,2.63
2017-07-03T20:26:34.383Z,2.57
2017-07-03T20:29:00.651Z,2.67
2017-07-03T20:31:33.935Z,3.73
2017-07-03T20:34:00.211Z,5.03
2017-07-03T20:36:26.568Z,2.97
2017-07-03T20:38:53.651Z,5.07
2017-07-03T20:41:19.987Z,2.30
2017-07-03T20:43:46.322Z,3.30
2017-07-03T20:46:13.445Z,2.73
2017-07-03T20:48:40.427Z,3.27
2017-07-03T20:51:07.060Z,2.53
2017-07-03T20:53:33.694Z,2.80
2017-07-03T20:56:00.366Z,2.90
2017-07-03T20:58:26.671Z,3.20
2017-07-03T21:00:52.964Z,3.90
2017-07-03T21:03:19.255Z,4.30
2017-07-03T21:05:45.592Z,4.00
2017-07-03T21:08:12.359Z,2.80
2017-07-03T21:10:38.669Z,3.60
2017-07-03T21:13:04.956Z,2.90
2017-07-03T21:15:31.290Z,3.23
2017-07-03T21:17:57.583Z,4.07
2017-07-03T21:20:24.548Z,3.75
2017-07-03T21:22:50.874Z,3.35
2017-07-03T21:25:17.166Z,2.73
2017-07-03T21:27:43.473Z,3.87
2017-07-03T21:30:09.768Z,3.05
2017-07-03T21:32:36.454Z,2.93
2017-07-03T21:35:02.718Z,4.37
2017-07-03T21:37:29.030Z,4.63
2017-07-03T21:39:55.310Z,3.87
2017-07-03T21:42:22.419Z,2.90
2017-07-03T21:44:48.658Z,3.97
2017-07-03T21:47:15.775Z,4.00
2017-07-03T21:49:42.526Z,3.23
2017-07-03T21:52:08.789Z,3.17
2017-07-03T21:54:35.068Z,4.10
2017-07-03T21:57:01.396Z,3.57
2017-07-03T21:59:27.684Z,4.43
2017-07-03T22:01:53.941Z,3.73
2017-07-03T22:04:20.253Z,2.90
2017-07-03T22:06:46.524Z,3.80
2017-07-03T22:09:13.153Z,3.10
2017-07-03T22:11:39.411Z,3.43
2017-07-03T22:14:05.686Z,3.13
2017-07-03T22:16:31.989Z,3.90
2017-07-03T22:18:58.277Z,3.60
2017-07-03T22:21:24.546Z,3.27
2017-07-03T22:23:51.809Z,3.67
2017-07-03T22:26:18.685Z,3.33
2017-07-03T22:28:45.581Z,3.60
2017-07-03T22:31:11.863Z,3.63
2017-07-03T22:33:39.089Z,3.83
2017-07-03T22:36:05.388Z,4.00
2017-07-03T22:38:31.691Z,3.77
2017-07-03T22:40:57.995Z,6.10
2017-07-03T22:43:24.323Z,3.30
2017-07-03T22:45:50.619Z,4.47
2017-07-03T22:48:16.887Z,3.97
2017-07-03T22:50:43.162Z,5.03
2017-07-03T22:53:09.422Z,4.40
2017-07-03T22:55:35.702Z,3.50
2017-07-03T22:58:01.991Z,3.83
2017-07-03T23:00:28.659Z,6.20
2017-07-03T23:02:54.905Z,6.93
2017-07-03T23:05:21.156Z,6.70
2017-07-03T23:07:47.435Z,6.07
2017-07-03T23:10:13.687Z,5.00
2017-07-03T23:12:39.966Z,3.63
2017-07-03T23:15:06.229Z,3.43
2017-07-03T23:17:32.866Z,3.30
2017-07-03T23:19:59.152Z,4.87
2017-07-03T23:22:25.419Z,3.30
2017-07-03T23:24:51.695Z,4.23
2017-07-03T23:27:18.315Z,5.05
2017-07-03T23:29:44.608Z,4.18
2017-07-03T23:32:10.888Z,5.07
2017-07-03T23:34:37.180Z,4.27
2017-07-03T23:37:03.431Z,3.90
2017-07-03T23:39:29.730Z,4.05
2017-07-03T23:41:56.042Z,4.75
2017-07-03T23:44:22.299Z,3.83
2017-07-03T23:46:48.576Z,4.45
2017-07-03T23:49:15.219Z,3.40
2017-07-03T23:51:41.921Z,4.45
2017-07-03T23:54:08.181Z,3.67
2017-07-03T23:56:34.485Z,4.25
2017-07-03T23:59:00.765Z,5.40
